Time;durP1;ratioP1;P1;durP2;ratioP2;P2;SDS_P1;SDS_P2;PMS_P1;PMS_P2;Temp;Humidity;BMP_temperature;BMP_pressure;BME280_temperature;BME280_humidity;BME280_pressure;Samples;Min_cycle;Max_cycle;Signal;HPM_P1;HPM_P2
2021/05/19 00:00:52;;;;;;;3.20;2.38;;;;;;;;;;5060219;28;20033;-60
2021/05/19 00:03:17;;;;;;;3.47;2.05;;;;;;;;;;5062832;28;20044;-60
2021/05/19 00:05:43;;;;;;;2.58;2.30;;;;;;;;;;5031324;28;20052;-60
2021/05/19 00:08:08;;;;;;;3.65;2.40;;;;;;;;;;5029918;28;20030;-60
2021/05/19 00:10:35;;;;;;;3.85;2.35;;;;;;;;;;5032846;28;20042;-61
2021/05/19 00:13:00;;;;;;;2.88;1.90;;;;;;;;;;5030455;28;21002;-60
2021/05/19 00:15:26;;;;;;;3.20;2.20;;;;;;;;;;5029258;28;20030;-60
2021/05/19 00:17:51;;;;;;;2.50;2.00;;;;;;;;;;5030564;28;20769;-60
2021/05/19 00:20:18;;;;;;;2.35;1.80;;;;;;;;;;5031184;28;20763;-61
2021/05/19 00:22:43;;;;;;;2.15;1.80;;;;;;;;;;5030324;28;20033;-61
2021/05/19 00:25:10;;;;;;;2.50;1.90;;;;;;;;;;5029329;28;20950;-61
2021/05/19 00:27:35;;;;;;;1.98;1.75;;;;;;;;;;5029023;28;20022;-60
2021/05/19 00:30:02;;;;;;;2.65;1.83;;;;;;;;;;5031026;28;20046;-61
2021/05/19 00:32:27;;;;;;;2.28;1.90;;;;;;;;;;5031006;28;20025;-60
2021/05/19 00:34:53;;;;;;;2.17;1.90;;;;;;;;;;5064308;28;20034;-61
2021/05/19 00:37:18;;;;;;;2.13;1.83;;;;;;;;;;5029021;27;20124;-61
2021/05/19 00:39:44;;;;;;;2.92;1.88;;;;;;;;;;5030465;28;20038;-61
2021/05/19 00:42:13;;;;;;;3.05;1.83;;;;;;;;;;5029482;28;20064;-61
2021/05/19 00:44:39;;;;;;;2.28;1.90;;;;;;;;;;5029343;28;20034;-62
2021/05/19 00:47:05;;;;;;;2.03;1.60;;;;;;;;;;5055778;28;20030;-61
2021/05/19 00:49:30;;;;;;;1.90;1.42;;;;;;;;;;5033037;28;20120;-61
2021/05/19 00:51:56;;;;;;;3.03;1.70;;;;;;;;;;5030568;28;20091;-61
2021/05/19 00:54:22;;;;;;;2.13;1.75;;;;;;;;;;5062331;28;20041;-61
2021/05/19 00:56:48;;;;;;;2.63;1.70;;;;;;;;;;5030344;28;20038;-60
2021/05/19 00:59:13;;;;;;;2.47;1.60;;;;;;;;;;5064850;28;20110;-61
2021/05/19 01:01:45;;;;;;;2.00;1.53;;;;;;;;;;5055784;28;20045;-60
2021/05/19 01:04:13;;;;;;;2.75;1.52;;;;;;;;;;5022725;28;20036;-60
2021/05/19 01:06:58;;;;;;;1.85;1.50;;;;;;;;;;5038179;28;20978;-60
2021/05/19 01:09:36;;;;;;;2.33;1.75;;;;;;;;;;5029373;28;20394;-61
2021/05/19 01:12:03;;;;;;;1.55;1.45;;;;;;;;;;5035651;28;20033;-60
2021/05/19 01:14:28;;;;;;;2.13;1.60;;;;;;;;;;5031656;28;20030;-60
2021/05/19 01:16:55;;;;;;;2.25;1.63;;;;;;;;;;5033988;28;20026;-61
2021/05/19 01:19:21;;;;;;;2.00;1.73;;;;;;;;;;5033732;28;20507;-60
2021/05/19 01:21:50;;;;;;;2.53;1.42;;;;;;;;;;5032576;28;20077;-60
2021/05/19 01:24:16;;;;;;;1.50;1.30;;;;;;;;;;5019616;28;20029;-60
2021/05/19 01:26:41;;;;;;;1.60;1.40;;;;;;;;;;5031561;28;20085;-60
2021/05/19 01:29:07;;;;;;;2.15;1.67;;;;;;;;;;5021087;28;20512;-60
2021/05/19 01:31:33;;;;;;;1.75;1.45;;;;;;;;;;5033088;28;20770;-61
2021/05/19 01:33:59;;;;;;;2.63;1.70;;;;;;;;;;5034030;28;20113;-61
2021/05/19 01:36:24;;;;;;;2.63;1.60;;;;;;;;;;5034503;28;20039;-60
2021/05/19 01:38:50;;;;;;;1.60;1.50;;;;;;;;;;5035427;28;20149;-60
2021/05/19 01:41:15;;;;;;;2.10;1.60;;;;;;;;;;5048899;28;20034;-61
2021/05/19 01:43:44;;;;;;;2.40;1.60;;;;;;;;;;5041390;28;20037;-60
2021/05/19 01:46:39;;;;;;;1.60;1.50;;;;;;;;;;5056546;28;20132;-60
2021/05/19 01:49:05;;;;;;;1.50;1.30;;;;;;;;;;5033424;28;20042;-60
2021/05/19 01:51:31;;;;;;;2.10;1.35;;;;;;;;;;5034259;28;20443;-60
2021/05/19 01:53:56;;;;;;;1.65;1.40;;;;;;;;;;5019517;28;20386;-61
2021/05/19 01:56:22;;;;;;;1.88;1.50;;;;;;;;;;5033035;28;20065;-60
2021/05/19 01:58:51;;;;;;;1.30;1.20;;;;;;;;;;5041036;28;20034;-61
2021/05/19 02:01:17;;;;;;;2.05;1.20;;;;;;;;;;5034209;28;20041;-61
2021/05/19 02:03:42;;;;;;;1.92;1.63;;;;;;;;;;5048772;28;20030;-60
2021/05/19 02:06:13;;;;;;;1.70;1.50;;;;;;;;;;5033807;28;20527;-60
2021/05/19 02:08:39;;;;;;;1.40;1.23;;;;;;;;;;5032670;28;20037;-60
2021/05/19 02:11:07;;;;;;;1.42;1.30;;;;;;;;;;5033668;28;20034;-61
2021/05/19 02:13:37;;;;;;;2.20;1.40;;;;;;;;;;5032523;28;20608;-60
2021/05/19 02:16:05;;;;;;;1.88;1.40;;;;;;;;;;5031048;28;20045;-60
2021/05/19 02:18:32;;;;;;;2.38;1.30;;;;;;;;;;5066091;28;20031;-60
2021/05/19 02:21:02;;;;;;;1.75;1.55;;;;;;;;;;5035100;28;20450;-60
2021/05/19 02:23:27;;;;;;;1.90;1.30;;;;;;;;;;5032175;28;20030;-61
2021/05/19 02:25:53;;;;;;;1.60;1.30;;;;;;;;;;5037258;28;20763;-60
2021/05/19 02:28:19;;;;;;;1.13;1.02;;;;;;;;;;5062829;28;20044;-60
2021/05/19 02:30:47;;;;;;;1.73;1.20;;;;;;;;;;5064471;28;20086;-60
2021/05/19 02:33:16;;;;;;;1.20;1.10;;;;;;;;;;5034217;28;20022;-60
2021/05/19 02:35:42;;;;;;;1.23;1.13;;;;;;;;;;5017874;28;20042;-61
2021/05/19 02:38:09;;;;;;;1.85;1.30;;;;;;;;;;5039877;28;20119;-61
2021/05/19 02:40:35;;;;;;;1.30;1.20;;;;;;;;;;5032784;28;20037;-60
2021/05/19 02:43:00;;;;;;;1.17;1.08;;;;;;;;;;5032632;28;20103;-60
2021/05/19 02:45:30;;;;;;;1.48;1.13;;;;;;;;;;5066439;28;20037;-60
2021/05/19 02:47:56;;;;;;;2.13;1.40;;;;;;;;;;5029996;28;20042;-60
2021/05/19 02:50:21;;;;;;;2.60;1.40;;;;;;;;;;5032546;28;20061;-60
2021/05/19 02:52:47;;;;;;;1.90;1.67;;;;;;;;;;5064915;28;20033;-60
2021/05/19 02:55:12;;;;;;;1.33;1.20;;;;;;;;;;5031692;28;20040;-60
2021/05/19 02:57:38;;;;;;;1.98;1.70;;;;;;;;;;5034013;28;20092;-60
2021/05/19 03:00:05;;;;;;;2.75;1.50;;;;;;;;;;5031339;28;20033;-60
2021/05/19 03:02:31;;;;;;;3.40;1.95;;;;;;;;;;5032463;28;20109;-60
2021/05/19 03:04:56;;;;;;;2.35;1.90;;;;;;;;;;5031077;28;20091;-60
2021/05/19 03:07:22;;;;;;;2.88;2.17;;;;;;;;;;5035157;28;20422;-61
2021/05/19 03:09:47;;;;;;;3.90;2.42;;;;;;;;;;5032493;28;20029;-60
2021/05/19 03:12:13;;;;;;;3.50;2.78;;;;;;;;;;5030785;28;20040;-60
2021/05/19 03:14:39;;;;;;;3.38;2.70;;;;;;;;;;5063600;28;20121;-60
2021/05/19 03:17:04;;;;;;;5.68;3.08;;;;;;;;;;5031310;28;20025;-59
2021/05/19 03:19:30;;;;;;;4.00;2.83;;;;;;;;;;5031686;28;20117;-60
2021/05/19 03:21:55;;;;;;;3.05;2.65;;;;;;;;;;5034608;28;20065;-60
2021/05/19 03:24:21;;;;;;;3.28;2.50;;;;;;;;;;5031077;28;20470;-60
2021/05/19 03:26:46;;;;;;;3.30;2.50;;;;;;;;;;5031556;28;20033;-60
2021/05/19 03:29:12;;;;;;;2.97;2.58;;;;;;;;;;5030760;28;20037;-61
2021/05/19 03:31:37;;;;;;;3.30;2.60;;;;;;;;;;5031957;28;20063;-59
2021/05/19 03:34:03;;;;;;;3.92;2.53;;;;;;;;;;5029976;28;20040;-60
2021/05/19 03:36:28;;;;;;;3.08;2.50;;;;;;;;;;5030882;28;20140;-61
2021/05/19 03:38:54;;;;;;;2.92;2.35;;;;;;;;;;5029722;28;20026;-60
2021/05/19 03:41:19;;;;;;;3.10;2.55;;;;;;;;;;5032099;28;20092;-61
2021/05/19 03:43:45;;;;;;;4.68;2.72;;;;;;;;;;5030218;28;20026;-60
2021/05/19 03:46:13;;;;;;;3.30;2.72;;;;;;;;;;5032150;28;20383;-60
2021/05/19 03:48:38;;;;;;;3.97;3.10;;;;;;;;;;5030456;28;20037;-60
2021/05/19 03:51:04;;;;;;;4.32;3.08;;;;;;;;;;5030016;28;20017;-61
2021/05/19 03:53:29;;;;;;;4.13;3.05;;;;;;;;;;5031061;28;20056;-61
2021/05/19 03:55:55;;;;;;;3.55;3.00;;;;;;;;;;5021530;28;20038;-60
2021/05/19 03:58:21;;;;;;;4.65;2.88;;;;;;;;;;5048241;28;20033;-61
2021/05/19 04:00:46;;;;;;;4.03;2.90;;;;;;;;;;5030314;28;20027;-60
2021/05/19 04:03:12;;;;;;;3.70;3.22;;;;;;;;;;5038944;28;20439;-60
2021/05/19 04:05:38;;;;;;;4.55;3.15;;;;;;;;;;5038604;28;20516;-60
2021/05/19 04:08:04;;;;;;;4.95;3.78;;;;;;;;;;5031497;28;20123;-60
2021/05/19 04:10:30;;;;;;;4.50;3.50;;;;;;;;;;5031407;28;20473;-60
2021/05/19 04:12:55;;;;;;;4.28;3.22;;;;;;;;;;5013576;28;20029;-60
2021/05/19 04:15:22;;;;;;;4.68;3.38;;;;;;;;;;5032654;28;20084;-61
2021/05/19 04:17:48;;;;;;;4.95;3.72;;;;;;;;;;5031190;28;20108;-62
2021/05/19 04:20:13;;;;;;;5.32;4.00;;;;;;;;;;5027773;28;20030;-62
2021/05/19 04:22:39;;;;;;;6.40;4.07;;;;;;;;;;5061828;28;20026;-59
2021/05/19 04:25:05;;;;;;;6.07;4.30;;;;;;;;;;5021984;28;20438;-59
2021/05/19 04:27:31;;;;;;;5.18;4.20;;;;;;;;;;5031170;28;20671;-59
2021/05/19 04:29:56;;;;;;;5.25;3.95;;;;;;;;;;5038038;28;20034;-59
2021/05/19 04:32:22;;;;;;;6.72;4.70;;;;;;;;;;5028999;28;20041;-59
2021/05/19 04:34:47;;;;;;;5.97;4.63;;;;;;;;;;5030229;28;20040;-59
2021/05/19 04:37:12;;;;;;;5.88;4.47;;;;;;;;;;5028852;28;20212;-59
2021/05/19 04:39:38;;;;;;;6.13;4.55;;;;;;;;;;5029939;28;20391;-59
2021/05/19 04:42:04;;;;;;;4.85;4.05;;;;;;;;;;5038645;28;20034;-60
2021/05/19 04:44:29;;;;;;;6.45;4.43;;;;;;;;;;5030672;28;20046;-59
2021/05/19 04:46:55;;;;;;;5.88;4.40;;;;;;;;;;5037378;28;20056;-60
2021/05/19 04:49:20;;;;;;;5.78;4.28;;;;;;;;;;5035872;28;20108;-59
2021/05/19 04:51:46;;;;;;;5.95;4.38;;;;;;;;;;5036073;28;20022;-60
2021/05/19 04:54:11;;;;;;;6.45;4.95;;;;;;;;;;5037891;28;20057;-59
2021/05/19 04:56:37;;;;;;;6.28;4.03;;;;;;;;;;5021914;28;20034;-59
2021/05/19 04:59:04;;;;;;;6.03;4.30;;;;;;;;;;5034444;28;20100;-59
2021/05/19 05:01:29;;;;;;;6.15;4.50;;;;;;;;;;5036482;28;20061;-59
2021/05/19 05:03:55;;;;;;;6.20;4.75;;;;;;;;;;5038762;28;20496;-60
2021/05/19 05:06:20;;;;;;;6.88;5.05;;;;;;;;;;5036329;28;20056;-60
2021/05/19 05:08:46;;;;;;;6.68;4.93;;;;;;;;;;5039003;28;20030;-60
2021/05/19 05:11:11;;;;;;;6.50;4.82;;;;;;;;;;5068460;28;20164;-59
2021/05/19 05:13:37;;;;;;;7.25;4.90;;;;;;;;;;5037184;28;20038;-60
2021/05/19 05:16:02;;;;;;;6.30;4.78;;;;;;;;;;5035351;28;20025;-59
2021/05/19 05:18:34;;;;;;;6.82;4.85;;;;;;;;;;5038322;28;20493;-60
2021/05/19 05:20:59;;;;;;;7.00;5.45;;;;;;;;;;5044747;28;20036;-59
2021/05/19 05:23:25;;;;;;;6.75;5.18;;;;;;;;;;5038044;28;22057;-60
2021/05/19 05:25:50;;;;;;;6.78;5.35;;;;;;;;;;5037352;28;20041;-59
2021/05/19 05:28:15;;;;;;;6.50;4.97;;;;;;;;;;5038056;28;20034;-60
2021/05/19 05:30:41;;;;;;;6.95;5.03;;;;;;;;;;5037303;28;20040;-60
2021/05/19 05:33:06;;;;;;;6.40;4.75;;;;;;;;;;5038631;28;20045;-59
2021/05/19 05:35:32;;;;;;;8.13;5.28;;;;;;;;;;5037557;28;20057;-59
2021/05/19 05:37:57;;;;;;;8.02;5.68;;;;;;;;;;5035752;28;20034;-60
2021/05/19 05:40:23;;;;;;;6.80;5.28;;;;;;;;;;5036062;28;20034;-60
2021/05/19 05:42:48;;;;;;;7.25;5.50;;;;;;;;;;5037313;28;20397;-60
2021/05/19 05:45:14;;;;;;;7.18;5.70;;;;;;;;;;5038341;28;20052;-60
2021/05/19 05:47:39;;;;;;;7.75;5.80;;;;;;;;;;5037107;28;20117;-60
2021/05/19 05:50:05;;;;;;;8.05;6.10;;;;;;;;;;5019872;28;20457;-60
2021/05/19 05:52:31;;;;;;;8.32;5.95;;;;;;;;;;5044381;28;20034;-60
2021/05/19 05:54:56;;;;;;;6.72;5.35;;;;;;;;;;5037059;28;20367;-60
2021/05/19 05:57:22;;;;;;;7.72;5.50;;;;;;;;;;5033909;28;21082;-60
2021/05/19 05:59:47;;;;;;;8.02;6.05;;;;;;;;;;5037400;28;20434;-60
2021/05/19 06:02:13;;;;;;;8.20;6.10;;;;;;;;;;5031848;28;20041;-60
2021/05/19 06:04:38;;;;;;;7.90;5.95;;;;;;;;;;5031850;28;20045;-60
2021/05/19 06:07:04;;;;;;;8.90;6.60;;;;;;;;;;5032497;28;20041;-60
2021/05/19 06:09:29;;;;;;;8.65;6.53;;;;;;;;;;5033701;28;20049;-60
2021/05/19 06:11:55;;;;;;;8.55;6.63;;;;;;;;;;5033345;28;20030;-60
2021/05/19 06:14:21;;;;;;;9.40;7.00;;;;;;;;;;5033748;28;20042;-60
2021/05/19 06:16:46;;;;;;;8.68;7.13;;;;;;;;;;5033244;28;20103;-60
2021/05/19 06:19:12;;;;;;;8.60;6.55;;;;;;;;;;5034680;28;20084;-60
2021/05/19 06:21:37;;;;;;;8.02;6.63;;;;;;;;;;5063992;28;20033;-59
2021/05/19 06:24:04;;;;;;;8.85;7.05;;;;;;;;;;5032719;28;20772;-61
2021/05/19 06:26:29;;;;;;;10.60;7.28;;;;;;;;;;5031489;28;20050;-61
2021/05/19 06:28:55;;;;;;;9.00;6.93;;;;;;;;;;5030474;28;20072;-61
2021/05/19 06:31:20;;;;;;;10.10;7.22;;;;;;;;;;5032246;28;20318;-62
2021/05/19 06:33:46;;;;;;;9.30;7.07;;;;;;;;;;5034013;28;20033;-61
2021/05/19 06:36:11;;;;;;;8.77;6.57;;;;;;;;;;5024704;28;20029;-61
2021/05/19 06:38:37;;;;;;;8.88;6.70;;;;;;;;;;5031910;28;20049;-61
2021/05/19 06:41:02;;;;;;;9.18;6.63;;;;;;;;;;5034007;28;20021;-60
2021/05/19 06:43:28;;;;;;;8.00;6.43;;;;;;;;;;5032247;28;20034;-61
2021/05/19 06:45:53;;;;;;;9.63;6.97;;;;;;;;;;5034136;28;20104;-61
2021/05/19 06:48:18;;;;;;;9.18;6.97;;;;;;;;;;5065785;28;20049;-61
2021/05/19 06:50:45;;;;;;;9.90;6.93;;;;;;;;;;5035808;28;20031;-61
2021/05/19 06:53:12;;;;;;;9.25;7.35;;;;;;;;;;5031612;28;20244;-61
2021/05/19 06:55:38;;;;;;;9.32;7.60;;;;;;;;;;5033814;28;20034;-60
2021/05/19 06:58:04;;;;;;;9.35;7.18;;;;;;;;;;5031430;28;20029;-61
2021/05/19 07:00:29;;;;;;;10.27;7.65;;;;;;;;;;5064997;28;20035;-61
2021/05/19 07:02:55;;;;;;;9.25;7.32;;;;;;;;;;5033251;28;20496;-61
2021/05/19 07:05:20;;;;;;;9.43;7.28;;;;;;;;;;5033096;28;20433;-61
2021/05/19 07:07:49;;;;;;;8.80;7.00;;;;;;;;;;5043134;28;20915;-61
2021/05/19 07:10:14;;;;;;;9.02;7.07;;;;;;;;;;5032434;28;20053;-61
2021/05/19 07:12:40;;;;;;;9.60;6.95;;;;;;;;;;5030199;28;20033;-61
2021/05/19 07:15:11;;;;;;;10.07;6.93;;;;;;;;;;5030958;28;20423;-60
2021/05/19 07:17:38;;;;;;;8.88;6.78;;;;;;;;;;5032072;28;20119;-61
2021/05/19 07:20:05;;;;;;;9.30;6.93;;;;;;;;;;5033871;28;20038;-61
2021/05/19 07:22:31;;;;;;;10.40;6.90;;;;;;;;;;5063154;28;20045;-61
2021/05/19 07:24:57;;;;;;;8.98;6.65;;;;;;;;;;5030953;28;20088;-61
2021/05/19 07:27:22;;;;;;;10.23;6.38;;;;;;;;;;5032809;28;20044;-61
2021/05/19 07:29:48;;;;;;;8.63;6.38;;;;;;;;;;5063705;28;20030;-61
2021/05/19 07:32:13;;;;;;;8.55;6.47;;;;;;;;;;5031664;28;20040;-61
2021/05/19 07:34:39;;;;;;;9.02;6.50;;;;;;;;;;5031248;28;20029;-62
2021/05/19 07:37:04;;;;;;;8.57;6.18;;;;;;;;;;5030451;28;20045;-61
2021/05/19 07:39:30;;;;;;;8.50;6.35;;;;;;;;;;5030776;28;20050;-62
2021/05/19 07:41:56;;;;;;;8.18;5.88;;;;;;;;;;5033499;28;20026;-61
2021/05/19 07:44:21;;;;;;;8.95;6.07;;;;;;;;;;5033389;28;20042;-61
2021/05/19 07:46:47;;;;;;;9.60;6.25;;;;;;;;;;5032011;27;20034;-61
2021/05/19 07:49:14;;;;;;;8.98;6.28;;;;;;;;;;5032714;28;20134;-62
2021/05/19 07:51:39;;;;;;;9.07;6.53;;;;;;;;;;5032179;28;20089;-60
2021/05/19 07:54:05;;;;;;;9.10;6.40;;;;;;;;;;5031126;28;20072;-61
2021/05/19 07:56:49;;;;;;;8.18;6.10;;;;;;;;;;5029676;28;20041;-61
2021/05/19 07:59:16;;;;;;;8.02;5.97;;;;;;;;;;5035883;28;20541;-60
2021/05/19 08:04:19;;;;;;;8.50;5.75;;;;;;;;;;5030197;28;20045;-61
2021/05/19 08:06:45;;;;;;;7.60;5.20;;;;;;;;;;5046780;28;21084;-61
2021/05/19 08:09:10;;;;;;;7.63;5.60;;;;;;;;;;5032711;28;20029;-60
2021/05/19 08:11:38;;;;;;;8.20;5.93;;;;;;;;;;5038899;28;20036;-60
2021/05/19 08:14:03;;;;;;;8.20;5.72;;;;;;;;;;5031528;28;20041;-61
2021/05/19 08:16:29;;;;;;;8.05;5.22;;;;;;;;;;5031873;28;20045;-61
2021/05/19 08:18:55;;;;;;;8.25;5.47;;;;;;;;;;5030533;27;20045;-61
2021/05/19 08:21:20;;;;;;;7.30;5.32;;;;;;;;;;5029772;28;20962;-61
2021/05/19 08:23:46;;;;;;;7.93;5.65;;;;;;;;;;5030460;28;20034;-61
2021/05/19 08:26:12;;;;;;;8.13;5.32;;;;;;;;;;5029605;28;20773;-61
2021/05/19 08:28:37;;;;;;;7.00;5.25;;;;;;;;;;5046478;28;20030;-60
2021/05/19 08:31:03;;;;;;;7.75;5.30;;;;;;;;;;5029970;28;20033;-61
2021/05/19 08:33:29;;;;;;;8.60;5.40;;;;;;;;;;5028296;28;20033;-61
2021/05/19 08:35:55;;;;;;;7.57;5.30;;;;;;;;;;5015413;28;20490;-61
2021/05/19 08:38:20;;;;;;;7.40;5.30;;;;;;;;;;5038571;28;20538;-61
2021/05/19 08:40:46;;;;;;;7.90;5.13;;;;;;;;;;5027849;28;20401;-61
2021/05/19 08:43:14;;;;;;;6.65;5.05;;;;;;;;;;5030464;28;20121;-61
2021/05/19 08:45:40;;;;;;;8.02;5.05;;;;;;;;;;5027948;28;20114;-61
2021/05/19 08:48:07;;;;;;;7.10;4.82;;;;;;;;;;5030271;28;20030;-61
2021/05/19 08:50:33;;;;;;;6.90;4.30;;;;;;;;;;5062006;28;20030;-61
2021/05/19 08:52:59;;;;;;;4.57;2.92;;;;;;;;;;5027827;28;20057;-61
2021/05/19 08:55:25;;;;;;;4.82;3.17;;;;;;;;;;5030043;28;20034;-61
2021/05/19 08:57:51;;;;;;;4.32;2.70;;;;;;;;;;5028517;28;20348;-61
2021/05/19 09:00:17;;;;;;;3.95;2.92;;;;;;;;;;5037102;28;20109;-60
2021/05/19 09:03:03;;;;;;;4.90;3.08;;;;;;;;;;5030447;28;20042;-61
2021/05/19 09:05:32;;;;;;;4.30;3.20;;;;;;;;;;5057935;28;20037;-60
2021/05/19 09:08:05;;;;;;;3.45;2.33;;;;;;;;;;5031637;28;20030;-61
2021/05/19 09:10:30;;;;;;;4.07;2.90;;;;;;;;;;5041823;28;20033;-61
2021/05/19 09:12:56;;;;;;;4.47;2.80;;;;;;;;;;5028901;28;20021;-60
2021/05/19 09:15:22;;;;;;;4.55;2.70;;;;;;;;;;5030376;28;20779;-61
2021/05/19 09:17:54;;;;;;;3.72;2.40;;;;;;;;;;5029997;28;20409;-61
2021/05/19 09:20:20;;;;;;;4.13;2.30;;;;;;;;;;5032043;28;20045;-61
2021/05/19 09:22:46;;;;;;;3.38;2.55;;;;;;;;;;5032798;28;20401;-61
2021/05/19 09:25:32;;;;;;;3.42;2.53;;;;;;;;;;5031227;28;21016;-61
2021/05/19 09:27:59;;;;;;;3.20;2.33;;;;;;;;;;5030478;28;20084;-61
2021/05/19 09:30:44;;;;;;;3.35;1.88;;;;;;;;;;5029083;28;20061;-61
2021/05/19 09:33:18;;;;;;;1.95;1.63;;;;;;;;;;5032075;28;20944;-61
2021/05/19 09:35:45;;;;;;;6.05;3.35;;;;;;;;;;5035131;28;20065;-61
2021/05/19 09:38:29;;;;;;;3.28;2.03;;;;;;;;;;5041560;28;20030;-61
2021/05/19 09:41:13;;;;;;;3.80;2.05;;;;;;;;;;5062766;28;20547;-61
2021/05/19 09:43:39;;;;;;;3.10;2.03;;;;;;;;;;5033194;28;20092;-61
2021/05/19 09:46:13;;;;;;;2.58;2.03;;;;;;;;;;5065380;28;20087;-61
2021/05/19 09:48:38;;;;;;;3.20;2.25;;;;;;;;;;5035075;28;20038;-61
2021/05/19 09:51:04;;;;;;;3.72;1.90;;;;;;;;;;5033618;28;20034;-60
2021/05/19 09:53:33;;;;;;;3.42;2.38;;;;;;;;;;5031814;28;20053;-61
2021/05/19 09:55:58;;;;;;;4.53;2.55;;;;;;;;;;5039671;28;20716;-61
2021/05/19 09:58:36;;;;;;;3.33;2.38;;;;;;;;;;5040521;28;20125;-60
2021/05/19 10:01:02;;;;;;;4.10;2.30;;;;;;;;;;5064598;28;20034;-61
2021/05/19 10:03:27;;;;;;;3.65;2.80;;;;;;;;;;5029444;28;20049;-61
2021/05/19 10:06:28;;;;;;;5.38;2.83;;;;;;;;;;5036533;28;20045;-61
2021/05/19 10:08:45;;;;;;;3.47;2.60;;;;;;;;;;5031337;28;20042;-60
2021/05/19 10:11:11;;;;;;;3.38;2.67;;;;;;;;;;5046869;28;20868;-61
2021/05/19 10:13:37;;;;;;;4.95;3.15;;;;;;;;;;5065343;28;20091;-61
2021/05/19 10:16:04;;;;;;;6.47;3.53;;;;;;;;;;5033443;28;20092;-61
2021/05/19 10:18:31;;;;;;;4.55;3.22;;;;;;;;;;5008027;28;20533;-61
2021/05/19 10:20:58;;;;;;;5.85;3.67;;;;;;;;;;5021416;28;20033;-61
2021/05/19 10:23:34;;;;;;;4.28;3.00;;;;;;;;;;5035107;28;20088;-62
2021/05/19 10:26:13;;;;;;;4.38;3.05;;;;;;;;;;5033363;28;20605;-63
2021/05/19 10:28:46;;;;;;;3.28;2.50;;;;;;;;;;5034321;28;20034;-63
2021/05/19 10:31:32;;;;;;;2.35;1.73;;;;;;;;;;5031937;28;20041;-60
2021/05/19 10:34:01;;;;;;;3.08;2.50;;;;;;;;;;5033812;28;20081;-62
2021/05/19 10:36:40;;;;;;;3.88;2.78;;;;;;;;;;5031268;28;20034;-62
2021/05/19 10:39:08;;;;;;;4.28;2.75;;;;;;;;;;5034267;28;20033;-61
2021/05/19 10:41:47;;;;;;;4.20;2.97;;;;;;;;;;5032659;28;20030;-61
2021/05/19 10:44:17;;;;;;;5.45;3.53;;;;;;;;;;5031262;28;20038;-62
2021/05/19 10:46:46;;;;;;;5.50;3.28;;;;;;;;;;5062968;28;20038;-61
2021/05/19 10:49:11;;;;;;;4.50;3.25;;;;;;;;;;5030577;28;20482;-61
2021/05/19 10:51:44;;;;;;;4.97;3.80;;;;;;;;;;5031041;28;20045;-61
2021/05/19 11:00:09;;;;;;;5.85;3.85;;;;;;;;;;5030735;28;20042;-61
2021/05/19 11:03:01;;;;;;;6.18;3.53;;;;;;;;;;5033819;28;20137;-60
2021/05/19 11:05:32;;;;;;;;;;;;;;;;;;5059379;28;20054;-61
2021/05/19 11:10:35;;;;;;;4.45;2.72;;;;;;;;;;5032594;28;20369;-61
2021/05/19 11:13:01;;;;;;;4.30;2.20;;;;;;;;;;5034039;28;20619;-63
2021/05/19 11:15:58;;;;;;;3.63;2.17;;;;;;;;;;5031749;28;20034;-63
2021/05/19 11:19:22;;;;;;;5.07;2.42;;;;;;;;;;5031552;28;20092;-62
2021/05/19 11:21:19;;;;;;;3.63;2.30;;;;;;;;;;5030068;28;20054;-63
2021/05/19 11:24:09;;;;;;;4.13;2.58;;;;;;;;;;5032841;28;20037;-63
2021/05/19 11:26:45;;;;;;;4.50;2.55;;;;;;;;;;5031803;28;20048;-61
2021/05/19 11:29:12;;;;;;;4.32;2.20;;;;;;;;;;5047942;28;20045;-63
2021/05/19 11:31:43;;;;;;;3.15;2.40;;;;;;;;;;5029652;28;20490;-62
2021/05/19 11:34:09;;;;;;;3.42;2.13;;;;;;;;;;5031083;28;20034;-62
2021/05/19 11:36:43;;;;;;;3.00;1.58;;;;;;;;;;5031985;28;20034;-62
2021/05/19 11:39:27;;;;;;;3.10;1.58;;;;;;;;;;5030946;28;20546;-62
2021/05/19 11:42:11;;;;;;;2.40;1.23;;;;;;;;;;5037924;28;20073;-62
2021/05/19 11:44:38;;;;;;;2.22;0.75;;;;;;;;;;5032536;28;20491;-62
2021/05/19 11:47:04;;;;;;;1.48;0.60;;;;;;;;;;5063490;27;20046;-62
2021/05/19 11:49:30;;;;;;;1.90;0.60;;;;;;;;;;5030882;28;20065;-62
2021/05/19 11:51:55;;;;;;;1.55;0.70;;;;;;;;;;5030949;28;20052;-62
2021/05/19 11:54:21;;;;;;;1.33;0.60;;;;;;;;;;5032130;28;20041;-62
2021/05/19 11:56:49;;;;;;;2.08;0.75;;;;;;;;;;5030456;28;20034;-62
2021/05/19 11:59:24;;;;;;;1.50;0.60;;;;;;;;;;5046180;28;20026;-62
2021/05/19 12:02:09;;;;;;;1.13;0.60;;;;;;;;;;5032384;28;20069;-62
2021/05/19 12:04:40;;;;;;;0.77;0.50;;;;;;;;;;5030646;28;20037;-62
2021/05/19 12:07:07;;;;;;;1.30;0.50;;;;;;;;;;5063195;28;20033;-62
2021/05/19 12:09:40;;;;;;;1.85;0.63;;;;;;;;;;5029875;28;20048;-62
2021/05/19 12:12:07;;;;;;;1.25;0.50;;;;;;;;;;5032505;28;20044;-61
2021/05/19 12:14:34;;;;;;;1.55;0.70;;;;;;;;;;5031436;28;20038;-62
2021/05/19 12:17:01;;;;;;;1.23;0.50;;;;;;;;;;5027919;28;20064;-62
2021/05/19 12:19:27;;;;;;;1.33;0.52;;;;;;;;;;5065683;27;20073;-62
2021/05/19 12:22:08;;;;;;;1.23;0.50;;;;;;;;;;5032630;28;20025;-62
2021/05/19 12:24:33;;;;;;;1.90;0.90;;;;;;;;;;5030259;28;20030;-62
2021/05/19 12:26:59;;;;;;;1.85;0.65;;;;;;;;;;5029171;28;20447;-61
2021/05/19 12:29:46;;;;;;;2.17;0.77;;;;;;;;;;5062035;28;20702;-62
2021/05/19 12:32:22;;;;;;;2.85;0.75;;;;;;;;;;5048071;28;20037;-62
2021/05/19 12:34:57;;;;;;;2.35;0.77;;;;;;;;;;5062194;28;20850;-62
2021/05/19 12:37:43;;;;;;;0.98;0.60;;;;;;;;;;5030108;28;20038;-62
2021/05/19 12:40:09;;;;;;;1.50;0.80;;;;;;;;;;5031289;28;20037;-62
2021/05/19 12:42:44;;;;;;;2.33;0.70;;;;;;;;;;5029959;28;20073;-62
2021/05/19 12:45:11;;;;;;;2.08;0.75;;;;;;;;;;5030813;28;20133;-61
2021/05/19 12:47:36;;;;;;;1.02;0.70;;;;;;;;;;5021371;28;21066;-62
2021/05/19 12:50:03;;;;;;;1.83;0.82;;;;;;;;;;5062474;28;20033;-63
2021/05/19 12:52:31;;;;;;;2.08;0.93;;;;;;;;;;5032205;28;20120;-62
2021/05/19 12:54:56;;;;;;;2.22;1.00;;;;;;;;;;5029737;28;20072;-62
2021/05/19 12:57:29;;;;;;;2.13;1.20;;;;;;;;;;5038417;28;20033;-62
2021/05/19 12:59:59;;;;;;;2.53;1.00;;;;;;;;;;5039337;28;20064;-62
2021/05/19 13:02:51;;;;;;;2.28;0.80;;;;;;;;;;5031772;28;20057;-61
2021/05/19 13:05:23;;;;;;;1.38;0.90;;;;;;;;;;5026136;28;20062;-62
2021/05/19 13:07:49;;;;;;;1.65;0.90;;;;;;;;;;5031303;28;20037;-62
2021/05/19 13:10:27;;;;;;;1.13;0.73;;;;;;;;;;5059829;28;20112;-62
2021/05/19 13:13:11;;;;;;;1.15;0.73;;;;;;;;;;5035598;28;20029;-61
2021/05/19 13:15:53;;;;;;;1.13;0.90;;;;;;;;;;5034767;28;20041;-62
2021/05/19 13:18:35;;;;;;;0.57;0.55;;;;;;;;;;5050939;28;20041;-62
2021/05/19 13:21:16;;;;;;;1.15;0.70;;;;;;;;;;5034822;28;20037;-61
2021/05/19 13:23:46;;;;;;;1.65;0.90;;;;;;;;;;5034607;28;20062;-62
2021/05/19 13:26:12;;;;;;;1.92;0.80;;;;;;;;;;5031675;28;20478;-62
2021/05/19 13:28:42;;;;;;;1.23;0.50;;;;;;;;;;5033569;28;20029;-62
2021/05/19 13:31:10;;;;;;;1.40;0.70;;;;;;;;;;5032013;28;20034;-62
2021/05/19 13:38:50;;;;;;;0.52;0.40;;;;;;;;;;5033849;28;20042;-62
2021/05/19 13:41:16;;;;;;;1.00;0.50;;;;;;;;;;5033576;28;20033;-62
2021/05/19 13:43:43;;;;;;;0.85;0.50;;;;;;;;;;5034353;28;20076;-62
2021/05/19 13:46:08;;;;;;;1.35;0.55;;;;;;;;;;5031782;28;20046;-62
2021/05/19 13:48:34;;;;;;;1.38;0.52;;;;;;;;;;5066285;28;20041;-62
2021/05/19 13:50:59;;;;;;;1.35;0.50;;;;;;;;;;5033452;28;20037;-62
2021/05/19 13:53:25;;;;;;;1.27;0.52;;;;;;;;;;5066162;28;20500;-62
2021/05/19 13:55:50;;;;;;;0.60;0.40;;;;;;;;;;5031921;28;20047;-62
2021/05/19 13:58:16;;;;;;;1.75;0.50;;;;;;;;;;5035185;28;20076;-62
2021/05/19 14:00:41;;;;;;;2.15;0.60;;;;;;;;;;5017783;28;20041;-62
2021/05/19 14:03:07;;;;;;;1.02;0.60;;;;;;;;;;5030987;28;20026;-62
2021/05/19 14:05:33;;;;;;;1.83;0.85;;;;;;;;;;5064293;28;20144;-62
2021/05/19 14:07:59;;;;;;;1.98;0.60;;;;;;;;;;5031943;28;20045;-63
2021/05/19 14:10:27;;;;;;;0.65;0.50;;;;;;;;;;5032576;28;20075;-64
2021/05/19 14:12:58;;;;;;;0.98;0.50;;;;;;;;;;5049877;28;20055;-62
2021/05/19 14:28:42;;;;;;;1.10;0.60;;;;;;;;;;5059966;28;20112;-63
2021/05/19 14:31:08;;;;;;;1.98;0.60;;;;;;;;;;5024186;28;20502;-63
2021/05/19 14:33:34;;;;;;;3.55;0.90;;;;;;;;;;4989738;28;20037;-63
2021/05/19 14:58:59;;;;;;;1.98;0.50;;;;;;;;;;5060039;28;20038;-61
2021/05/19 15:00:11;;;;;;;1.92;0.70;;;;;;;;;;5032124;28;20094;-61
2021/05/19 15:02:41;;;;;;;0.80;0.40;;;;;;;;;;5031507;28;20040;-61
2021/05/19 15:05:08;;;;;;;1.42;0.50;;;;;;;;;;5031047;28;20066;-61
2021/05/19 15:07:34;;;;;;;1.95;0.50;;;;;;;;;;5039848;28;20041;-63
2021/05/19 15:09:59;;;;;;;1.23;0.43;;;;;;;;;;5028557;28;20034;-62
2021/05/19 15:12:25;;;;;;;0.30;0.30;;;;;;;;;;5033009;28;20044;-62
2021/05/19 15:14:50;;;;;;;2.28;0.65;;;;;;;;;;5062234;28;20471;-62
2021/05/19 15:17:16;;;;;;;0.98;0.52;;;;;;;;;;5032741;28;20456;-65
2021/05/19 15:19:41;;;;;;;2.47;0.70;;;;;;;;;;5033525;28;20025;-60
2021/05/19 15:22:07;;;;;;;1.27;0.60;;;;;;;;;;5032715;28;20494;-61
2021/05/19 15:24:32;;;;;;;2.53;1.00;;;;;;;;;;5064612;28;20306;-60
2021/05/19 15:26:57;;;;;;;1.05;0.70;;;;;;;;;;5030337;28;20053;-60
2021/05/19 15:29:23;;;;;;;1.08;0.70;;;;;;;;;;5063412;27;20046;-60
2021/05/19 15:31:49;;;;;;;1.63;0.90;;;;;;;;;;5030598;28;20030;-60
2021/05/19 15:34:14;;;;;;;1.52;0.88;;;;;;;;;;5035407;28;20621;-60
2021/05/19 15:36:42;;;;;;;1.17;0.80;;;;;;;;;;5028978;28;20333;-60
2021/05/19 15:39:07;;;;;;;1.33;0.80;;;;;;;;;;5028214;28;20037;-60